sensor_id;sensor_type;location;lat;lon;timestamp;P1;durP1;ratioP1;P2;durP2;ratioP2
52041;SDS011;38052;45.944;13.624;2022-10-31T00:01:18;8.50;;;1.63;;
52041;SDS011;38052;45.944;13.624;2022-10-31T00:03:44;6.57;;;1.88;;
52041;SDS011;38052;45.944;13.624;2022-10-31T00:06:11;6.25;;;1.40;;
52041;SDS011;38052;45.944;13.624;2022-10-31T00:08:37;7.95;;;2.05;;
52041;SDS011;38052;45.944;13.624;2022-10-31T00:11:08;6.63;;;1.67;;
52041;SDS011;38052;45.944;13.624;2022-10-31T00:13:34;7.85;;;2.08;;
52041;SDS011;38052;45.944;13.624;2022-10-31T00:16:00;9.40;;;2.03;;
52041;SDS011;38052;45.944;13.624;2022-10-31T00:18:27;7.47;;;1.63;;
52041;SDS011;38052;45.944;13.624;2022-10-31T00:21:00;9.50;;;2.25;;
52041;SDS011;38052;45.944;13.624;2022-10-31T00:23:26;9.27;;;2.22;;
52041;SDS011;38052;45.944;13.624;2022-10-31T00:25:53;8.20;;;1.80;;
52041;SDS011;38052;45.944;13.624;2022-10-31T00:28:19;8.30;;;2.05;;
52041;SDS011;38052;45.944;13.624;2022-10-31T00:30:46;12.82;;;2.28;;
52041;SDS011;38052;45.944;13.624;2022-10-31T00:33:12;9.85;;;2.80;;
52041;SDS011;38052;45.944;13.624;2022-10-31T00:35:39;5.40;;;1.60;;
52041;SDS011;38052;45.944;13.624;2022-10-31T00:38:05;8.10;;;2.28;;
52041;SDS011;38052;45.944;13.624;2022-10-31T00:40:31;5.22;;;2.42;;
52041;SDS011;38052;45.944;13.624;2022-10-31T00:42:58;9.20;;;2.20;;
52041;SDS011;38052;45.944;13.624;2022-10-31T00:45:24;9.57;;;2.17;;
52041;SDS011;38052;45.944;13.624;2022-10-31T00:47:51;7.55;;;2.15;;
52041;SDS011;38052;45.944;13.624;2022-10-31T00:50:18;10.15;;;2.70;;
52041;SDS011;38052;45.944;13.624;2022-10-31T00:52:44;9.45;;;2.25;;
52041;SDS011;38052;45.944;13.624;2022-10-31T00:55:11;8.30;;;2.50;;
52041;SDS011;38052;45.944;13.624;2022-10-31T00:57:37;9.15;;;2.42;;
52041;SDS011;38052;45.944;13.624;2022-10-31T01:00:04;13.48;;;2.33;;
52041;SDS011;38052;45.944;13.624;2022-10-31T01:02:31;14.00;;;2.05;;
52041;SDS011;38052;45.944;13.624;2022-10-31T01:04:57;9.63;;;2.35;;
52041;SDS011;38052;45.944;13.624;2022-10-31T01:07:24;6.07;;;1.60;;
52041;SDS011;38052;45.944;13.624;2022-10-31T01:09:50;11.75;;;1.50;;
52041;SDS011;38052;45.944;13.624;2022-10-31T01:12:17;6.82;;;2.38;;
52041;SDS011;38052;45.944;13.624;2022-10-31T01:14:44;7.53;;;1.95;;
52041;SDS011;38052;45.944;13.624;2022-10-31T01:17:11;9.52;;;2.13;;
52041;SDS011;38052;45.944;13.624;2022-10-31T01:19:37;11.13;;;2.13;;
52041;SDS011;38052;45.944;13.624;2022-10-31T01:22:04;8.77;;;1.90;;
52041;SDS011;38052;45.944;13.624;2022-10-31T01:24:30;5.50;;;1.83;;
52041;SDS011;38052;45.944;13.624;2022-10-31T01:26:56;7.50;;;2.47;;
52041;SDS011;38052;45.944;13.624;2022-10-31T01:29:23;11.50;;;2.92;;
52041;SDS011;38052;45.944;13.624;2022-10-31T01:31:49;7.90;;;1.98;;
52041;SDS011;38052;45.944;13.624;2022-10-31T01:34:16;6.93;;;1.92;;
52041;SDS011;38052;45.944;13.624;2022-10-31T01:36:44;9.10;;;2.83;;
52041;SDS011;38052;45.944;13.624;2022-10-31T01:39:13;10.98;;;2.58;;
52041;SDS011;38052;45.944;13.624;2022-10-31T01:41:44;8.10;;;2.70;;
52041;SDS011;38052;45.944;13.624;2022-10-31T01:46:39;9.85;;;2.20;;
52041;SDS011;38052;45.944;13.624;2022-10-31T01:49:17;10.68;;;2.58;;
52041;SDS011;38052;45.944;13.624;2022-10-31T01:51:46;9.20;;;2.83;;
52041;SDS011;38052;45.944;13.624;2022-10-31T01:54:14;7.65;;;3.03;;
52041;SDS011;38052;45.944;13.624;2022-10-31T01:56:42;9.63;;;2.75;;
52041;SDS011;38052;45.944;13.624;2022-10-31T01:59:10;9.85;;;1.95;;
52041;SDS011;38052;45.944;13.624;2022-10-31T02:01:37;6.22;;;2.58;;
52041;SDS011;38052;45.944;13.624;2022-10-31T02:04:04;6.40;;;1.85;;
52041;SDS011;38052;45.944;13.624;2022-10-31T02:06:42;8.45;;;1.77;;
52041;SDS011;38052;45.944;13.624;2022-10-31T02:09:09;8.95;;;2.17;;
52041;SDS011;38052;45.944;13.624;2022-10-31T02:11:37;6.28;;;1.75;;
52041;SDS011;38052;45.944;13.624;2022-10-31T02:14:04;9.68;;;2.30;;
52041;SDS011;38052;45.944;13.624;2022-10-31T02:16:30;9.63;;;1.98;;
52041;SDS011;38052;45.944;13.624;2022-10-31T02:18:57;12.20;;;2.88;;
52041;SDS011;38052;45.944;13.624;2022-10-31T02:21:30;7.10;;;2.40;;
52041;SDS011;38052;45.944;13.624;2022-10-31T02:31:45;12.35;;;1.95;;
52041;SDS011;38052;45.944;13.624;2022-10-31T02:39:25;6.25;;;1.73;;
52041;SDS011;38052;45.944;13.624;2022-10-31T02:41:54;10.50;;;2.08;;
52041;SDS011;38052;45.944;13.624;2022-10-31T02:46:57;8.60;;;2.13;;
52041;SDS011;38052;45.944;13.624;2022-10-31T02:52:17;12.70;;;2.28;;
52041;SDS011;38052;45.944;13.624;2022-10-31T02:54:43;8.38;;;1.75;;
52041;SDS011;38052;45.944;13.624;2022-10-31T02:57:10;10.90;;;2.40;;
52041;SDS011;38052;45.944;13.624;2022-10-31T02:59:37;8.90;;;1.85;;
52041;SDS011;38052;45.944;13.624;2022-10-31T03:10:03;8.68;;;1.77;;
52041;SDS011;38052;45.944;13.624;2022-10-31T03:12:35;8.48;;;1.95;;
52041;SDS011;38052;45.944;13.624;2022-10-31T03:20:22;8.98;;;1.95;;
52041;SDS011;38052;45.944;13.624;2022-10-31T03:22:50;9.02;;;1.90;;
52041;SDS011;38052;45.944;13.624;2022-10-31T03:25:17;7.18;;;1.52;;
52041;SDS011;38052;45.944;13.624;2022-10-31T03:27:44;7.43;;;2.45;;
52041;SDS011;38052;45.944;13.624;2022-10-31T03:30:10;13.75;;;2.55;;
52041;SDS011;38052;45.944;13.624;2022-10-31T03:32:42;7.45;;;2.22;;
52041;SDS011;38052;45.944;13.624;2022-10-31T03:35:09;10.38;;;2.58;;
52041;SDS011;38052;45.944;13.624;2022-10-31T03:37:36;7.10;;;1.92;;
52041;SDS011;38052;45.944;13.624;2022-10-31T03:40:04;5.28;;;1.73;;
52041;SDS011;38052;45.944;13.624;2022-10-31T03:42:33;6.75;;;2.17;;
52041;SDS011;38052;45.944;13.624;2022-10-31T03:45:02;12.80;;;3.28;;
52041;SDS011;38052;45.944;13.624;2022-10-31T03:47:30;7.88;;;1.65;;
52041;SDS011;38052;45.944;13.624;2022-10-31T03:49:56;8.63;;;1.60;;
52041;SDS011;38052;45.944;13.624;2022-10-31T03:52:28;11.63;;;2.63;;
52041;SDS011;38052;45.944;13.624;2022-10-31T03:54:58;10.68;;;2.78;;
52041;SDS011;38052;45.944;13.624;2022-10-31T04:00:00;8.60;;;1.70;;
52041;SDS011;38052;45.944;13.624;2022-10-31T04:02:29;9.13;;;2.00;;
52041;SDS011;38052;45.944;13.624;2022-10-31T04:04:57;15.43;;;1.95;;
52041;SDS011;38052;45.944;13.624;2022-10-31T04:07:25;6.60;;;2.35;;
52041;SDS011;38052;45.944;13.624;2022-10-31T04:09:53;6.05;;;1.75;;
52041;SDS011;38052;45.944;13.624;2022-10-31T04:12:19;7.30;;;2.28;;
52041;SDS011;38052;45.944;13.624;2022-10-31T04:14:47;6.70;;;2.20;;
52041;SDS011;38052;45.944;13.624;2022-10-31T04:17:16;6.97;;;2.00;;
52041;SDS011;38052;45.944;13.624;2022-10-31T04:19:43;7.28;;;2.20;;
52041;SDS011;38052;45.944;13.624;2022-10-31T04:22:10;8.75;;;2.50;;
52041;SDS011;38052;45.944;13.624;2022-10-31T04:24:37;9.52;;;2.88;;
52041;SDS011;38052;45.944;13.624;2022-10-31T04:27:04;10.02;;;2.13;;
52041;SDS011;38052;45.944;13.624;2022-10-31T04:29:30;13.98;;;2.55;;
52041;SDS011;38052;45.944;13.624;2022-10-31T04:31:56;8.40;;;2.38;;
52041;SDS011;38052;45.944;13.624;2022-10-31T04:34:23;14.38;;;1.98;;
52041;SDS011;38052;45.944;13.624;2022-10-31T04:36:49;11.32;;;1.52;;
52041;SDS011;38052;45.944;13.624;2022-10-31T04:39:16;12.05;;;2.10;;
52041;SDS011;38052;45.944;13.624;2022-10-31T04:41:42;12.80;;;2.10;;
52041;SDS011;38052;45.944;13.624;2022-10-31T04:44:08;6.78;;;2.03;;
52041;SDS011;38052;45.944;13.624;2022-10-31T04:46:35;8.82;;;1.75;;
52041;SDS011;38052;45.944;13.624;2022-10-31T04:49:01;15.18;;;2.38;;
52041;SDS011;38052;45.944;13.624;2022-10-31T04:51:28;9.10;;;2.03;;
52041;SDS011;38052;45.944;13.624;2022-10-31T04:53:54;11.45;;;1.63;;
52041;SDS011;38052;45.944;13.624;2022-10-31T04:56:21;12.50;;;2.22;;
52041;SDS011;38052;45.944;13.624;2022-10-31T04:58:47;8.15;;;2.00;;
52041;SDS011;38052;45.944;13.624;2022-10-31T05:01:14;13.38;;;3.15;;
52041;SDS011;38052;45.944;13.624;2022-10-31T05:03:40;10.55;;;2.03;;
52041;SDS011;38052;45.944;13.624;2022-10-31T05:06:07;10.52;;;2.00;;
52041;SDS011;38052;45.944;13.624;2022-10-31T05:08:34;15.63;;;2.72;;
52041;SDS011;38052;45.944;13.624;2022-10-31T05:11:03;10.90;;;2.40;;
52041;SDS011;38052;45.944;13.624;2022-10-31T05:13:30;8.70;;;2.00;;
52041;SDS011;38052;45.944;13.624;2022-10-31T05:15:56;6.85;;;1.92;;
52041;SDS011;38052;45.944;13.624;2022-10-31T05:18:23;8.98;;;2.00;;
52041;SDS011;38052;45.944;13.624;2022-10-31T05:20:49;8.75;;;2.03;;
52041;SDS011;38052;45.944;13.624;2022-10-31T05:23:15;8.05;;;2.38;;
52041;SDS011;38052;45.944;13.624;2022-10-31T05:25:41;8.38;;;3.00;;
52041;SDS011;38052;45.944;13.624;2022-10-31T05:28:08;7.85;;;2.13;;
52041;SDS011;38052;45.944;13.624;2022-10-31T05:30:35;8.43;;;1.90;;
52041;SDS011;38052;45.944;13.624;2022-10-31T05:33:01;11.30;;;2.67;;
52041;SDS011;38052;45.944;13.624;2022-10-31T05:35:29;6.03;;;2.17;;
52041;SDS011;38052;45.944;13.624;2022-10-31T05:37:56;13.15;;;2.60;;
52041;SDS011;38052;45.944;13.624;2022-10-31T05:40:23;9.05;;;1.92;;
52041;SDS011;38052;45.944;13.624;2022-10-31T05:42:53;7.53;;;1.63;;
52041;SDS011;38052;45.944;13.624;2022-10-31T05:45:20;9.88;;;2.65;;
52041;SDS011;38052;45.944;13.624;2022-10-31T05:47:59;12.88;;;2.38;;
52041;SDS011;38052;45.944;13.624;2022-10-31T05:50:26;7.65;;;1.98;;
52041;SDS011;38052;45.944;13.624;2022-10-31T05:52:56;8.65;;;2.05;;
52041;SDS011;38052;45.944;13.624;2022-10-31T05:55:23;10.33;;;2.47;;
52041;SDS011;38052;45.944;13.624;2022-10-31T05:57:50;14.98;;;2.60;;
52041;SDS011;38052;45.944;13.624;2022-10-31T06:00:17;11.30;;;2.63;;
52041;SDS011;38052;45.944;13.624;2022-10-31T06:02:43;10.90;;;2.30;;
52041;SDS011;38052;45.944;13.624;2022-10-31T06:05:10;9.45;;;1.85;;
52041;SDS011;38052;45.944;13.624;2022-10-31T06:07:36;9.38;;;2.55;;
52041;SDS011;38052;45.944;13.624;2022-10-31T06:10:03;7.95;;;2.53;;
52041;SDS011;38052;45.944;13.624;2022-10-31T06:12:31;9.13;;;2.60;;
52041;SDS011;38052;45.944;13.624;2022-10-31T06:14:57;8.90;;;2.25;;
52041;SDS011;38052;45.944;13.624;2022-10-31T06:17:23;12.43;;;2.30;;
52041;SDS011;38052;45.944;13.624;2022-10-31T06:19:50;7.75;;;2.40;;
52041;SDS011;38052;45.944;13.624;2022-10-31T06:22:16;8.02;;;1.92;;
52041;SDS011;38052;45.944;13.624;2022-10-31T06:24:42;9.52;;;2.63;;
52041;SDS011;38052;45.944;13.624;2022-10-31T06:27:09;6.85;;;1.60;;
52041;SDS011;38052;45.944;13.624;2022-10-31T06:29:35;9.77;;;2.20;;
52041;SDS011;38052;45.944;13.624;2022-10-31T06:32:01;10.88;;;2.13;;
52041;SDS011;38052;45.944;13.624;2022-10-31T06:34:28;9.27;;;2.25;;
52041;SDS011;38052;45.944;13.624;2022-10-31T06:36:54;9.23;;;2.40;;
52041;SDS011;38052;45.944;13.624;2022-10-31T06:39:21;7.90;;;2.25;;
52041;SDS011;38052;45.944;13.624;2022-10-31T06:41:47;7.60;;;2.33;;
52041;SDS011;38052;45.944;13.624;2022-10-31T06:44:13;11.98;;;2.90;;
52041;SDS011;38052;45.944;13.624;2022-10-31T06:46:40;16.70;;;2.22;;
52041;SDS011;38052;45.944;13.624;2022-10-31T06:49:06;9.85;;;2.80;;
52041;SDS011;38052;45.944;13.624;2022-10-31T06:51:33;9.18;;;2.45;;
52041;SDS011;38052;45.944;13.624;2022-10-31T06:53:59;11.60;;;1.90;;
52041;SDS011;38052;45.944;13.624;2022-10-31T06:56:26;6.70;;;1.80;;
52041;SDS011;38052;45.944;13.624;2022-10-31T06:58:52;5.53;;;2.20;;
52041;SDS011;38052;45.944;13.624;2022-10-31T07:01:18;6.50;;;1.83;;
52041;SDS011;38052;45.944;13.624;2022-10-31T07:03:44;9.63;;;2.30;;
52041;SDS011;38052;45.944;13.624;2022-10-31T07:06:11;12.50;;;2.67;;
52041;SDS011;38052;45.944;13.624;2022-10-31T07:08:37;12.90;;;2.13;;
52041;SDS011;38052;45.944;13.624;2022-10-31T07:11:04;7.40;;;2.28;;
52041;SDS011;38052;45.944;13.624;2022-10-31T07:13:31;5.07;;;1.73;;
52041;SDS011;38052;45.944;13.624;2022-10-31T07:16:02;15.93;;;3.15;;
52041;SDS011;38052;45.944;13.624;2022-10-31T07:18:28;9.85;;;2.15;;
52041;SDS011;38052;45.944;13.624;2022-10-31T07:20:55;7.15;;;1.63;;
52041;SDS011;38052;45.944;13.624;2022-10-31T07:23:21;8.00;;;2.53;;
52041;SDS011;38052;45.944;13.624;2022-10-31T07:25:48;11.45;;;2.28;;
52041;SDS011;38052;45.944;13.624;2022-10-31T07:28:14;9.90;;;2.63;;
52041;SDS011;38052;45.944;13.624;2022-10-31T07:30:41;9.57;;;2.42;;
52041;SDS011;38052;45.944;13.624;2022-10-31T07:33:07;13.30;;;2.17;;
52041;SDS011;38052;45.944;13.624;2022-10-31T07:35:34;14.38;;;2.10;;
52041;SDS011;38052;45.944;13.624;2022-10-31T07:38:08;11.00;;;2.13;;
52041;SDS011;38052;45.944;13.624;2022-10-31T07:40:34;8.75;;;2.67;;
52041;SDS011;38052;45.944;13.624;2022-10-31T07:43:00;10.43;;;2.22;;
52041;SDS011;38052;45.944;13.624;2022-10-31T07:45:27;7.95;;;2.25;;
52041;SDS011;38052;45.944;13.624;2022-10-31T07:47:53;9.73;;;2.20;;
52041;SDS011;38052;45.944;13.624;2022-10-31T07:50:20;7.22;;;2.05;;
52041;SDS011;38052;45.944;13.624;2022-10-31T07:52:47;9.57;;;1.83;;
52041;SDS011;38052;45.944;13.624;2022-10-31T07:55:14;9.38;;;2.80;;
52041;SDS011;38052;45.944;13.624;2022-10-31T07:57:40;6.55;;;1.73;;
52041;SDS011;38052;45.944;13.624;2022-10-31T08:00:07;11.38;;;2.50;;
52041;SDS011;38052;45.944;13.624;2022-10-31T08:02:36;8.15;;;1.77;;
52041;SDS011;38052;45.944;13.624;2022-10-31T08:05:02;6.05;;;2.00;;
52041;SDS011;38052;45.944;13.624;2022-10-31T08:07:29;7.18;;;2.80;;
52041;SDS011;38052;45.944;13.624;2022-10-31T08:09:55;15.63;;;2.83;;
52041;SDS011;38052;45.944;13.624;2022-10-31T08:12:22;11.80;;;2.42;;
52041;SDS011;38052;45.944;13.624;2022-10-31T08:14:49;9.77;;;2.15;;
52041;SDS011;38052;45.944;13.624;2022-10-31T08:17:15;14.13;;;2.55;;
52041;SDS011;38052;45.944;13.624;2022-10-31T08:19:42;14.98;;;3.25;;
52041;SDS011;38052;45.944;13.624;2022-10-31T08:22:08;13.10;;;2.65;;
52041;SDS011;38052;45.944;13.624;2022-10-31T08:24:35;10.35;;;2.08;;
52041;SDS011;38052;45.944;13.624;2022-10-31T08:27:01;14.15;;;2.45;;
52041;SDS011;38052;45.944;13.624;2022-10-31T08:29:28;4.68;;;1.65;;
52041;SDS011;38052;45.944;13.624;2022-10-31T08:31:55;10.70;;;2.42;;
52041;SDS011;38052;45.944;13.624;2022-10-31T08:34:23;11.10;;;2.35;;
52041;SDS011;38052;45.944;13.624;2022-10-31T08:36:50;12.25;;;3.22;;
52041;SDS011;38052;45.944;13.624;2022-10-31T08:39:16;11.65;;;2.50;;
52041;SDS011;38052;45.944;13.624;2022-10-31T08:41:43;13.02;;;2.40;;
52041;SDS011;38052;45.944;13.624;2022-10-31T08:44:09;8.85;;;2.17;;
52041;SDS011;38052;45.944;13.624;2022-10-31T08:46:35;4.45;;;1.70;;
52041;SDS011;38052;45.944;13.624;2022-10-31T08:49:02;14.68;;;2.58;;
52041;SDS011;38052;45.944;13.624;2022-10-31T08:51:29;7.88;;;2.08;;
52041;SDS011;38052;45.944;13.624;2022-10-31T08:53:56;13.88;;;2.67;;
52041;SDS011;38052;45.944;13.624;2022-10-31T08:56:22;11.90;;;2.22;;
52041;SDS011;38052;45.944;13.624;2022-10-31T08:58:49;9.40;;;2.28;;
52041;SDS011;38052;45.944;13.624;2022-10-31T09:01:16;6.53;;;2.10;;
52041;SDS011;38052;45.944;13.624;2022-10-31T09:03:42;11.75;;;2.33;;
52041;SDS011;38052;45.944;13.624;2022-10-31T09:06:09;8.10;;;1.70;;
52041;SDS011;38052;45.944;13.624;2022-10-31T09:08:35;10.48;;;2.35;;
52041;SDS011;38052;45.944;13.624;2022-10-31T09:11:02;13.05;;;2.05;;
52041;SDS011;38052;45.944;13.624;2022-10-31T09:13:28;13.60;;;2.17;;
52041;SDS011;38052;45.944;13.624;2022-10-31T09:15:55;9.63;;;1.58;;
52041;SDS011;38052;45.944;13.624;2022-10-31T09:18:22;7.78;;;2.30;;
52041;SDS011;38052;45.944;13.624;2022-10-31T09:20:49;9.10;;;1.95;;
52041;SDS011;38052;45.944;13.624;2022-10-31T09:23:17;8.35;;;2.50;;
52041;SDS011;38052;45.944;13.624;2022-10-31T09:25:43;13.07;;;3.45;;
52041;SDS011;38052;45.944;13.624;2022-10-31T09:28:11;13.40;;;2.10;;
52041;SDS011;38052;45.944;13.624;2022-10-31T09:30:38;11.13;;;2.63;;
52041;SDS011;38052;45.944;13.624;2022-10-31T09:33:06;13.15;;;2.75;;
52041;SDS011;38052;45.944;13.624;2022-10-31T09:35:33;23.27;;;3.13;;
52041;SDS011;38052;45.944;13.624;2022-10-31T09:38:00;9.02;;;2.55;;
52041;SDS011;38052;45.944;13.624;2022-10-31T09:40:31;13.57;;;2.20;;
52041;SDS011;38052;45.944;13.624;2022-10-31T09:43:02;10.23;;;2.60;;
52041;SDS011;38052;45.944;13.624;2022-10-31T09:53:21;6.65;;;2.05;;
52041;SDS011;38052;45.944;13.624;2022-10-31T09:55:48;10.25;;;2.53;;
52041;SDS011;38052;45.944;13.624;2022-10-31T09:58:26;12.50;;;3.08;;
52041;SDS011;38052;45.944;13.624;2022-10-31T10:00:54;14.18;;;2.80;;
52041;SDS011;38052;45.944;13.624;2022-10-31T10:03:34;11.23;;;2.47;;
52041;SDS011;38052;45.944;13.624;2022-10-31T10:06:04;10.88;;;2.53;;
52041;SDS011;38052;45.944;13.624;2022-10-31T10:08:34;15.65;;;2.08;;
52041;SDS011;38052;45.944;13.624;2022-10-31T10:32:26;10.20;;;2.13;;
52041;SDS011;38052;45.944;13.624;2022-10-31T10:34:54;10.55;;;3.00;;
52041;SDS011;38052;45.944;13.624;2022-10-31T10:37:33;12.98;;;2.42;;
52041;SDS011;38052;45.944;13.624;2022-10-31T10:40:24;12.07;;;2.30;;
52041;SDS011;38052;45.944;13.624;2022-10-31T10:48:43;11.75;;;2.30;;
52041;SDS011;38052;45.944;13.624;2022-10-31T10:51:16;8.75;;;2.13;;
52041;SDS011;38052;45.944;13.624;2022-10-31T10:53:47;10.20;;;1.63;;
52041;SDS011;38052;45.944;13.624;2022-10-31T10:58:56;8.68;;;2.25;;
52041;SDS011;38052;45.944;13.624;2022-10-31T11:01:22;8.65;;;1.55;;
52041;SDS011;38052;45.944;13.624;2022-10-31T11:03:49;10.52;;;2.83;;
52041;SDS011;38052;45.944;13.624;2022-10-31T11:06:17;16.02;;;2.67;;
52041;SDS011;38052;45.944;13.624;2022-10-31T11:08:46;8.13;;;1.80;;
52041;SDS011;38052;45.944;13.624;2022-10-31T11:13:47;10.95;;;2.15;;
52041;SDS011;38052;45.944;13.624;2022-10-31T11:16:15;8.38;;;2.25;;
52041;SDS011;38052;45.944;13.624;2022-10-31T11:18:52;6.35;;;2.00;;
52041;SDS011;38052;45.944;13.624;2022-10-31T11:21:27;9.25;;;2.25;;
52041;SDS011;38052;45.944;13.624;2022-10-31T11:24:04;8.27;;;2.05;;
52041;SDS011;38052;45.944;13.624;2022-10-31T11:26:38;8.80;;;1.80;;
52041;SDS011;38052;45.944;13.624;2022-10-31T11:29:05;13.25;;;1.70;;
52041;SDS011;38052;45.944;13.624;2022-10-31T11:31:37;7.93;;;2.13;;
52041;SDS011;38052;45.944;13.624;2022-10-31T11:34:04;6.68;;;2.45;;
52041;SDS011;38052;45.944;13.624;2022-10-31T11:36:36;9.82;;;2.08;;
52041;SDS011;38052;45.944;13.624;2022-10-31T11:39:03;7.18;;;2.05;;
52041;SDS011;38052;45.944;13.624;2022-10-31T11:44:01;9.75;;;1.77;;
52041;SDS011;38052;45.944;13.624;2022-10-31T11:46:41;5.63;;;1.92;;
52041;SDS011;38052;45.944;13.624;2022-10-31T11:51:54;8.60;;;2.17;;
52041;SDS011;38052;45.944;13.624;2022-10-31T11:54:23;5.13;;;1.50;;
52041;SDS011;38052;45.944;13.624;2022-10-31T11:56:51;3.58;;;1.33;;
52041;SDS011;38052;45.944;13.624;2022-10-31T11:59:21;10.05;;;2.65;;
52041;SDS011;38052;45.944;13.624;2022-10-31T12:01:49;6.53;;;1.70;;
52041;SDS011;38052;45.944;13.624;2022-10-31T12:04:16;7.47;;;1.73;;
52041;SDS011;38052;45.944;13.624;2022-10-31T12:06:43;15.00;;;2.83;;
52041;SDS011;38052;45.944;13.624;2022-10-31T12:09:18;10.88;;;2.17;;
52041;SDS011;38052;45.944;13.624;2022-10-31T12:19:27;12.70;;;2.78;;
52041;SDS011;38052;45.944;13.624;2022-10-31T12:29:56;13.13;;;2.80;;
52041;SDS011;38052;45.944;13.624;2022-10-31T12:40:43;8.50;;;2.33;;
52041;SDS011;38052;45.944;13.624;2022-10-31T12:45:56;6.47;;;1.60;;
52041;SDS011;38052;45.944;13.624;2022-10-31T12:53:47;7.32;;;2.33;;
52041;SDS011;38052;45.944;13.624;2022-10-31T12:57:03;8.45;;;3.08;;
52041;SDS011;38052;45.944;13.624;2022-10-31T12:59:20;6.97;;;2.10;;
52041;SDS011;38052;45.944;13.624;2022-10-31T13:06:40;11.77;;;2.05;;
52041;SDS011;38052;45.944;13.624;2022-10-31T13:09:10;7.20;;;1.80;;
52041;SDS011;38052;45.944;13.624;2022-10-31T13:11:39;13.77;;;2.40;;
52041;SDS011;38052;45.944;13.624;2022-10-31T13:14:26;15.82;;;2.55;;
52041;SDS011;38052;45.944;13.624;2022-10-31T13:16:53;7.60;;;2.08;;
52041;SDS011;38052;45.944;13.624;2022-10-31T13:24:21;7.28;;;1.70;;
52041;SDS011;38052;45.944;13.624;2022-10-31T13:31:44;7.78;;;1.95;;
52041;SDS011;38052;45.944;13.624;2022-10-31T13:34:23;8.75;;;2.00;;
52041;SDS011;38052;45.944;13.624;2022-10-31T13:42:21;8.75;;;2.30;;
52041;SDS011;38052;45.944;13.624;2022-10-31T13:44:39;5.97;;;2.38;;
52041;SDS011;38052;45.944;13.624;2022-10-31T13:47:25;6.55;;;2.22;;
52041;SDS011;38052;45.944;13.624;2022-10-31T13:50:03;12.85;;;2.53;;
52041;SDS011;38052;45.944;13.624;2022-10-31T13:52:29;7.22;;;2.30;;
52041;SDS011;38052;45.944;13.624;2022-10-31T13:55:03;9.75;;;2.88;;
52041;SDS011;38052;45.944;13.624;2022-10-31T13:57:34;16.92;;;2.80;;
52041;SDS011;38052;45.944;13.624;2022-10-31T14:02:47;7.60;;;1.90;;
52041;SDS011;38052;45.944;13.624;2022-10-31T14:07:43;10.70;;;2.83;;
52041;SDS011;38052;45.944;13.624;2022-10-31T14:10:20;9.30;;;3.15;;
52041;SDS011;38052;45.944;13.624;2022-10-31T14:12:47;9.82;;;2.85;;
52041;SDS011;38052;45.944;13.624;2022-10-31T14:15:21;6.38;;;2.05;;
52041;SDS011;38052;45.944;13.624;2022-10-31T14:17:59;12.10;;;2.95;;
52041;SDS011;38052;45.944;13.624;2022-10-31T14:22:52;12.65;;;3.00;;
52041;SDS011;38052;45.944;13.624;2022-10-31T14:25:31;10.27;;;2.83;;
52041;SDS011;38052;45.944;13.624;2022-10-31T14:27:59;7.47;;;2.33;;
52041;SDS011;38052;45.944;13.624;2022-10-31T14:30:27;7.95;;;2.40;;
52041;SDS011;38052;45.944;13.624;2022-10-31T14:32:57;16.23;;;2.38;;
52041;SDS011;38052;45.944;13.624;2022-10-31T14:35:28;8.25;;;2.30;;
52041;SDS011;38052;45.944;13.624;2022-10-31T14:40:24;8.32;;;2.13;;
52041;SDS011;38052;45.944;13.624;2022-10-31T14:53:02;12.07;;;3.03;;
52041;SDS011;38052;45.944;13.624;2022-10-31T14:55:29;10.85;;;2.50;;
52041;SDS011;38052;45.944;13.624;2022-10-31T14:58:00;12.23;;;2.95;;
52041;SDS011;38052;45.944;13.624;2022-10-31T15:00:27;7.97;;;2.67;;
52041;SDS011;38052;45.944;13.624;2022-10-31T15:05:41;9.65;;;2.67;;
52041;SDS011;38052;45.944;13.624;2022-10-31T15:10:36;9.82;;;3.00;;
52041;SDS011;38052;45.944;13.624;2022-10-31T15:13:13;7.65;;;2.13;;
52041;SDS011;38052;45.944;13.624;2022-10-31T15:15:43;8.68;;;3.35;;
52041;SDS011;38052;45.944;13.624;2022-10-31T15:18:16;13.80;;;2.85;;
52041;SDS011;38052;45.944;13.624;2022-10-31T15:20:43;8.95;;;2.53;;
52041;SDS011;38052;45.944;13.624;2022-10-31T15:23:11;10.80;;;2.63;;
52041;SDS011;38052;45.944;13.624;2022-10-31T15:25:37;14.48;;;3.60;;
52041;SDS011;38052;45.944;13.624;2022-10-31T15:28:12;8.65;;;2.63;;
52041;SDS011;38052;45.944;13.624;2022-10-31T15:30:39;13.45;;;3.60;;
52041;SDS011;38052;45.944;13.624;2022-10-31T15:33:23;8.65;;;2.60;;
52041;SDS011;38052;45.944;13.624;2022-10-31T15:35:59;9.63;;;3.83;;
52041;SDS011;38052;45.944;13.624;2022-10-31T15:38:26;8.90;;;2.35;;
52041;SDS011;38052;45.944;13.624;2022-10-31T15:40:53;11.73;;;3.65;;
52041;SDS011;38052;45.944;13.624;2022-10-31T15:43:20;13.30;;;2.92;;
52041;SDS011;38052;45.944;13.624;2022-10-31T15:45:46;12.95;;;3.17;;
52041;SDS011;38052;45.944;13.624;2022-10-31T15:48:15;12.93;;;4.63;;
52041;SDS011;38052;45.944;13.624;2022-10-31T15:51:00;13.25;;;4.10;;
52041;SDS011;38052;45.944;13.624;2022-10-31T15:56:00;11.88;;;4.07;;
52041;SDS011;38052;45.944;13.624;2022-10-31T15:58:28;11.25;;;4.60;;
52041;SDS011;38052;45.944;13.624;2022-10-31T16:00:56;7.45;;;2.97;;
52041;SDS011;38052;45.944;13.624;2022-10-31T16:03:25;15.43;;;3.20;;
52041;SDS011;38052;45.944;13.624;2022-10-31T16:05:52;8.40;;;2.85;;
52041;SDS011;38052;45.944;13.624;2022-10-31T16:08:44;11.70;;;4.35;;
52041;SDS011;38052;45.944;13.624;2022-10-31T16:13:36;12.32;;;4.20;;
52041;SDS011;38052;45.944;13.624;2022-10-31T16:16:04;14.52;;;4.57;;
52041;SDS011;38052;45.944;13.624;2022-10-31T16:18:37;11.65;;;4.35;;
52041;SDS011;38052;45.944;13.624;2022-10-31T16:21:04;15.98;;;4.40;;
52041;SDS011;38052;45.944;13.624;2022-10-31T16:23:32;9.70;;;4.15;;
52041;SDS011;38052;45.944;13.624;2022-10-31T16:25:58;11.57;;;4.80;;
52041;SDS011;38052;45.944;13.624;2022-10-31T16:28:25;14.52;;;4.13;;
52041;SDS011;38052;45.944;13.624;2022-10-31T16:30:53;11.38;;;4.93;;
52041;SDS011;38052;45.944;13.624;2022-10-31T16:35:52;13.43;;;5.10;;
52041;SDS011;38052;45.944;13.624;2022-10-31T16:38:19;15.82;;;4.50;;
52041;SDS011;38052;45.944;13.624;2022-10-31T16:40:45;8.00;;;4.65;;
52041;SDS011;38052;45.944;13.624;2022-10-31T16:43:12;10.80;;;3.58;;
52041;SDS011;38052;45.944;13.624;2022-10-31T16:45:46;11.15;;;4.00;;
52041;SDS011;38052;45.944;13.624;2022-10-31T16:48:14;7.68;;;3.28;;
52041;SDS011;38052;45.944;13.624;2022-10-31T16:50:43;5.95;;;2.42;;
52041;SDS011;38052;45.944;13.624;2022-10-31T16:53:11;8.68;;;3.28;;
52041;SDS011;38052;45.944;13.624;2022-10-31T16:55:46;9.23;;;3.10;;
52041;SDS011;38052;45.944;13.624;2022-10-31T16:58:34;7.38;;;2.78;;
52041;SDS011;38052;45.944;13.624;2022-10-31T17:00:59;8.95;;;3.38;;
52041;SDS011;38052;45.944;13.624;2022-10-31T17:03:26;13.35;;;4.13;;
52041;SDS011;38052;45.944;13.624;2022-10-31T17:05:53;13.38;;;4.35;;
52041;SDS011;38052;45.944;13.624;2022-10-31T17:08:22;12.18;;;2.85;;
52041;SDS011;38052;45.944;13.624;2022-10-31T17:10:52;7.22;;;2.65;;
52041;SDS011;38052;45.944;13.624;2022-10-31T17:13:20;7.90;;;2.53;;
52041;SDS011;38052;45.944;13.624;2022-10-31T17:15:49;9.80;;;4.25;;
52041;SDS011;38052;45.944;13.624;2022-10-31T17:18:16;17.60;;;4.30;;
52041;SDS011;38052;45.944;13.624;2022-10-31T17:20:43;9.13;;;4.07;;
52041;SDS011;38052;45.944;13.624;2022-10-31T17:23:10;10.00;;;4.50;;